Time;durP1;ratioP1;P1;durP2;ratioP2;P2;SDS_P1;SDS_P2;PMS_P1;PMS_P2;Temp;Humidity;BMP_temperature;BMP_pressure;BME280_temperature;BME280_humidity;BME280_pressure;Samples;Min_cycle;Max_cycle;Signal;HPM_P1;HPM_P2
2022/06/25 00:00:26;;;;;;;3.20;1.75;;;;;;;18.07;100.00;100646.84;5024336;28;20466;-74
2022/06/25 00:02:51;;;;;;;4.47;1.80;;;;;;;18.12;99.66;100652.31;4992698;28;20105;-74
2022/06/25 00:05:29;;;;;;;2.17;1.40;;;;;;;18.06;100.00;100654.25;5009030;28;20073;-75
2022/06/25 00:07:56;;;;;;;2.97;1.55;;;;;;;18.08;100.00;100653.16;4993381;28;20486;-74
2022/06/25 00:10:22;;;;;;;3.47;1.58;;;;;;;18.06;99.90;100656.19;4993825;28;20096;-75
2022/06/25 00:12:47;;;;;;;2.13;1.85;;;;;;;18.03;100.00;100657.56;5004432;28;20041;-74
2022/06/25 00:15:13;;;;;;;4.15;1.50;;;;;;;18.06;99.89;100658.91;5013418;28;20026;-74
2022/06/25 00:17:38;;;;;;;3.90;1.70;;;;;;;18.03;100.00;100662.22;5013122;28;20041;-74
2022/06/25 00:20:05;;;;;;;4.78;1.60;;;;;;;17.94;100.00;100669.38;5013325;28;20053;-75
2022/06/25 00:22:30;;;;;;;1.95;1.73;;;;;;;17.98;100.00;100667.69;5028179;28;20036;-74
2022/06/25 00:24:56;;;;;;;3.42;2.00;;;;;;;17.96;100.00;100661.69;5013284;28;20381;-74
2022/06/25 00:27:21;;;;;;;7.97;2.05;;;;;;;17.95;100.00;100671.00;5012848;28;20142;-75
2022/06/25 00:29:47;;;;;;;3.13;1.80;;;;;;;17.91;100.00;100669.94;5012948;28;20054;-74
2022/06/25 00:32:12;;;;;;;2.13;1.83;;;;;;;17.91;100.00;100662.53;5013122;28;20038;-74
2022/06/25 00:34:38;;;;;;;2.70;1.80;;;;;;;17.85;100.00;100672.63;5011429;28;20041;-74
2022/06/25 00:37:05;;;;;;;3.55;1.67;;;;;;;17.91;100.00;100667.19;5013176;28;20425;-75
2022/06/25 00:39:30;;;;;;;3.88;1.90;;;;;;;17.87;100.00;100662.25;5012839;28;20029;-75
2022/06/25 00:41:55;;;;;;;4.05;2.00;;;;;;;17.79;100.00;100662.81;5012992;28;20022;-74
2022/06/25 00:44:21;;;;;;;3.53;1.70;;;;;;;17.86;100.00;100670.72;5012735;28;20036;-75
2022/06/25 00:46:49;;;;;;;4.13;1.80;;;;;;;17.80;100.00;100669.94;5012709;28;20038;-75
2022/06/25 00:49:14;;;;;;;1.80;1.70;;;;;;;17.75;100.00;100663.63;5011611;28;20052;-75
2022/06/25 00:51:41;;;;;;;3.22;2.10;;;;;;;17.77;100.00;100677.84;5012887;28;20517;-74
2022/06/25 00:54:09;;;;;;;6.18;2.20;;;;;;;17.70;100.00;100669.94;5012874;28;20034;-74
2022/06/25 00:56:37;;;;;;;2.03;1.80;;;;;;;17.69;100.00;100665.56;5003149;28;20088;-74
2022/06/25 00:59:04;;;;;;;6.93;1.90;;;;;;;17.66;100.00;100668.84;4992930;28;20026;-75
2022/06/25 01:01:32;;;;;;;3.92;2.08;;;;;;;17.67;100.00;100670.50;4990874;28;20092;-75
2022/06/25 01:03:57;;;;;;;2.90;1.80;;;;;;;17.65;100.00;100673.50;4992852;28;20034;-74
2022/06/25 01:06:23;;;;;;;3.13;2.15;;;;;;;17.63;100.00;100681.16;4991870;28;20030;-75
2022/06/25 01:08:49;;;;;;;2.50;2.10;;;;;;;17.62;100.00;100678.72;5007970;28;20030;-74
2022/06/25 01:11:14;;;;;;;7.90;2.42;;;;;;;17.61;100.00;100683.38;5008284;28;20366;-75
2022/06/25 01:13:40;;;;;;;3.40;2.38;;;;;;;17.60;100.00;100683.66;4991590;28;20033;-75
2022/06/25 01:16:05;;;;;;;3.10;2.17;;;;;;;17.59;100.00;100682.84;4993049;28;20170;-75
2022/06/25 01:18:30;;;;;;;6.82;2.10;;;;;;;17.59;100.00;100679.25;4994882;28;20512;-74
2022/06/25 01:20:55;;;;;;;8.20;2.63;;;;;;;17.52;100.00;100690.50;5029471;28;20084;-75
2022/06/25 01:23:21;;;;;;;5.30;2.47;;;;;;;17.53;100.00;100690.22;5016576;28;20077;-74
2022/06/25 01:25:47;;;;;;;2.88;2.55;;;;;;;17.46;100.00;100689.69;5016295;28;20034;-74
2022/06/25 01:28:12;;;;;;;4.70;2.67;;;;;;;17.49;100.00;100708.28;5016485;28;20542;-74
2022/06/25 01:30:37;;;;;;;5.20;2.80;;;;;;;17.50;100.00;100698.16;5016425;28;20021;-74
2022/06/25 01:33:06;;;;;;;7.13;2.85;;;;;;;17.45;100.00;100703.63;5016165;28;20026;-74
2022/06/25 01:35:31;;;;;;;6.45;2.60;;;;;;;17.43;100.00;100703.09;5014960;28;20474;-75
2022/06/25 01:37:56;;;;;;;5.22;2.72;;;;;;;17.37;100.00;100705.00;5016039;28;20133;-74
2022/06/25 01:40:22;;;;;;;4.68;2.72;;;;;;;17.33;100.00;100695.69;5031453;28;20040;-75
2022/06/25 01:42:59;;;;;;;6.22;2.47;;;;;;;17.41;100.00;100706.09;4998686;28;20386;-74
2022/06/25 01:45:26;;;;;;;5.22;2.60;;;;;;;17.39;100.00;100712.94;4996614;28;20035;-75
2022/06/25 01:47:51;;;;;;;5.88;2.45;;;;;;;17.36;100.00;100717.03;4996223;28;20072;-75
2022/06/25 01:50:17;;;;;;;5.32;2.67;;;;;;;17.34;100.00;100714.56;4996186;28;20053;-75
2022/06/25 01:52:43;;;;;;;4.00;2.42;;;;;;;17.35;100.00;100724.44;4996263;28;20037;-75
2022/06/25 01:55:09;;;;;;;6.13;2.40;;;;;;;17.35;100.00;100724.44;4996167;28;20031;-75
2022/06/25 01:57:36;;;;;;;4.70;2.70;;;;;;;17.28;100.00;100726.59;4996111;28;20533;-74
2022/06/25 02:00:04;;;;;;;3.92;2.58;;;;;;;17.30;100.00;100729.91;4996060;28;20026;-75
2022/06/25 02:02:29;;;;;;;6.20;2.67;;;;;;;17.27;100.00;100735.94;5008928;28;20030;-74
2022/06/25 02:04:55;;;;;;;5.07;2.50;;;;;;;17.24;100.00;100732.91;4994663;28;20038;-74
2022/06/25 02:07:20;;;;;;;4.70;2.55;;;;;;;17.24;100.00;100739.22;4994850;28;20371;-74
2022/06/25 02:09:45;;;;;;;5.55;2.70;;;;;;;17.22;100.00;100735.09;4995549;28;20084;-74
2022/06/25 02:12:10;;;;;;;7.28;3.05;;;;;;;17.20;100.00;100740.03;4995753;28;20042;-75
2022/06/25 02:14:36;;;;;;;2.63;2.40;;;;;;;17.23;100.00;100742.22;4995845;28;20035;-74
2022/06/25 02:17:02;;;;;;;4.47;2.53;;;;;;;17.18;100.00;100746.56;4995928;28;20455;-74
2022/06/25 02:19:27;;;;;;;4.78;2.75;;;;;;;17.17;100.00;100747.66;4995934;28;20172;-74
2022/06/25 02:21:53;;;;;;;4.63;2.70;;;;;;;17.18;100.00;100749.31;5010813;28;20513;-74
2022/06/25 02:24:18;;;;;;;6.50;2.90;;;;;;;17.11;100.00;100751.47;4995555;28;20041;-75
2022/06/25 02:26:43;;;;;;;6.47;2.83;;;;;;;17.13;100.00;100752.03;5001490;28;20037;-74
2022/06/25 02:29:09;;;;;;;5.05;3.00;;;;;;;17.07;100.00;100750.38;5014507;28;20030;-74
2022/06/25 02:31:34;;;;;;;6.75;2.70;;;;;;;17.09;100.00;100759.16;5015062;28;20052;-74
2022/06/25 02:33:59;;;;;;;3.55;2.72;;;;;;;17.05;100.00;100765.44;5014965;28;20065;-75
2022/06/25 02:36:25;;;;;;;6.40;2.90;;;;;;;17.04;100.00;100770.06;5015285;28;20057;-74
2022/06/25 02:38:50;;;;;;;5.47;2.58;;;;;;;17.02;100.00;100764.03;5015075;28;20071;-74
2022/06/25 02:41:16;;;;;;;3.70;2.83;;;;;;;17.06;100.00;100775.25;5014816;28;20034;-75
2022/06/25 02:43:41;;;;;;;3.40;2.67;;;;;;;16.99;100.00;100770.88;5014864;28;20045;-75
2022/06/25 02:46:06;;;;;;;4.18;2.83;;;;;;;17.04;100.00;100772.78;5014686;28;20116;-75
2022/06/25 02:48:31;;;;;;;5.75;3.40;;;;;;;16.97;100.00;100774.97;5013615;28;20045;-74
2022/06/25 02:50:57;;;;;;;9.68;2.92;;;;;;;17.00;100.00;100783.44;5012751;28;20051;-74
2022/06/25 02:53:22;;;;;;;7.68;2.90;;;;;;;16.99;100.00;100790.00;5014923;28;20048;-75
2022/06/25 03:01:15;;;;;;;8.85;3.15;;;;;;;16.87;100.00;100788.63;5012206;28;20040;-74
2022/06/25 03:03:40;;;;;;;6.82;3.33;;;;;;;16.90;100.00;100782.59;5014294;28;20109;-73
2022/06/25 03:06:06;;;;;;;6.43;3.58;;;;;;;16.91;100.00;100790.53;5011671;28;20461;-75
2022/06/25 03:08:31;;;;;;;6.13;3.58;;;;;;;16.90;100.00;100785.34;4995053;28;20065;-74
2022/06/25 03:10:56;;;;;;;7.40;3.40;;;;;;;16.86;100.00;100782.28;4995104;28;20065;-75
2022/06/25 03:13:22;;;;;;;7.25;3.40;;;;;;;16.86;100.00;100787.75;4994923;28;20498;-74
2022/06/25 03:15:47;;;;;;;6.63;3.50;;;;;;;16.86;100.00;100787.75;4994507;28;20051;-75
2022/06/25 03:18:13;;;;;;;5.47;3.35;;;;;;;16.85;100.00;100786.13;4994602;28;20393;-75
2022/06/25 03:20:38;;;;;;;6.22;3.67;;;;;;;16.87;100.00;100783.16;4993593;28;20030;-74
2022/06/25 03:23:04;;;;;;;4.15;3.20;;;;;;;16.87;100.00;100786.69;4994853;28;20034;-74
2022/06/25 03:25:29;;;;;;;8.85;3.40;;;;;;;16.89;100.00;100786.41;4994879;28;20037;-74
2022/06/25 03:27:55;;;;;;;7.75;3.40;;;;;;;16.90;100.00;100790.81;4994333;28;20030;-74
2022/06/25 03:31:04;;;;;;;4.85;3.30;;;;;;;16.95;100.00;100785.34;5026548;28;20026;-74
2022/06/25 03:33:38;;;;;;;6.90;3.20;;;;;;;16.94;100.00;100791.88;5013331;28;20025;-74
2022/06/25 03:36:04;;;;;;;7.65;3.53;;;;;;;16.90;100.00;100794.34;5013500;28;20034;-74
2022/06/25 03:38:29;;;;;;;10.50;3.30;;;;;;;16.92;100.00;100796.81;4995497;28;20141;-74
2022/06/25 03:41:32;;;;;;;7.55;3.40;;;;;;;16.95;100.00;100799.84;5007692;28;20084;-74
2022/06/25 03:44:10;;;;;;;6.03;3.10;;;;;;;17.02;100.00;100799.59;4999868;28;20474;-74
2022/06/25 03:46:37;;;;;;;6.53;3.10;;;;;;;17.04;100.00;100805.59;4982926;28;20030;-74
2022/06/25 03:49:03;;;;;;;6.35;3.00;;;;;;;17.01;100.00;100800.66;4988632;28;20077;-74
2022/06/25 03:55:02;;;;;;;4.82;3.22;;;;;;;17.06;100.00;100802.59;4992199;28;20405;-74
2022/06/25 03:57:27;;;;;;;4.18;2.97;;;;;;;17.07;100.00;100804.25;4994116;28;20030;-74
2022/06/25 03:59:52;;;;;;;6.63;3.30;;;;;;;17.10;100.00;100799.03;4994086;28;20022;-74
2022/06/25 04:02:18;;;;;;;8.48;3.40;;;;;;;17.11;100.00;100794.41;4991511;28;20034;-74
2022/06/25 04:04:43;;;;;;;4.38;2.65;;;;;;;17.10;100.00;100804.50;4992691;28;20533;-74
2022/06/25 04:07:09;;;;;;;6.15;3.00;;;;;;;17.10;100.00;100804.50;4974569;28;20042;-74
2022/06/25 04:09:34;;;;;;;5.07;2.65;;;;;;;17.14;100.00;100805.63;4974542;28;20027;-74
2022/06/25 04:12:44;;;;;;;6.32;2.63;;;;;;;17.20;100.00;100820.13;4974773;28;20089;-75
2022/06/25 04:18:35;;;;;;;5.85;2.85;;;;;;;17.20;100.00;100805.66;4990983;28;20049;-74
2022/06/25 04:21:01;;;;;;;6.07;2.70;;;;;;;17.21;100.00;100808.13;4977032;28;20060;-74
2022/06/25 04:26:43;;;;;;;3.45;2.72;;;;;;;17.22;100.00;100817.13;4989760;28;20045;-75
2022/06/25 04:29:09;;;;;;;5.63;2.70;;;;;;;17.26;100.00;100813.59;4993268;28;20031;-75
2022/06/25 04:32:40;;;;;;;6.07;3.10;;;;;;;17.30;100.00;100822.06;4980742;28;20031;-74
2022/06/25 04:38:30;;;;;;;5.68;3.00;;;;;;;17.31;100.00;100827.25;4987753;28;20073;-75
2022/06/25 04:40:56;;;;;;;4.22;2.83;;;;;;;17.33;100.00;100832.44;4983936;28;20470;-74
2022/06/25 04:43:21;;;;;;;4.97;2.50;;;;;;;17.38;100.00;100837.09;4990023;28;20026;-74
2022/06/25 04:45:47;;;;;;;8.30;2.60;;;;;;;17.33;100.00;100836.03;5008296;28;20470;-74
2022/06/25 04:48:12;;;;;;;7.07;2.50;;;;;;;17.41;100.00;100836.56;4993009;28;20080;-73
2022/06/25 04:50:37;;;;;;;2.78;2.47;;;;;;;17.45;100.00;100834.94;4975523;28;20382;-76
2022/06/25 04:53:03;;;;;;;7.90;2.50;;;;;;;17.50;100.00;100841.25;4973711;28;20089;-73
2022/06/25 04:55:28;;;;;;;6.80;2.83;;;;;;;17.54;100.00;100842.34;4974709;28;20030;-73
2022/06/25 04:57:53;;;;;;;5.55;2.67;;;;;;;17.56;100.00;100842.06;4973647;28;20081;-74
2022/06/25 05:00:18;;;;;;;5.38;2.72;;;;;;;17.62;100.00;100837.41;5004741;28;20030;-72
2022/06/25 05:02:44;;;;;;;5.10;2.60;;;;;;;17.65;100.00;100843.19;4982519;28;20043;-73
2022/06/25 05:05:09;;;;;;;3.88;2.70;;;;;;;17.66;100.00;100854.94;4973084;28;20113;-73
2022/06/25 05:07:35;;;;;;;5.85;3.10;;;;;;;17.63;100.00;100844.53;4973759;28;20061;-73
2022/06/25 05:10:00;;;;;;;4.57;2.60;;;;;;;17.64;100.00;100859.88;4973069;28;20042;-73
2022/06/25 05:15:10;;;;;;;4.70;2.30;;;;;;;17.66;100.00;100854.94;4973420;28;20097;-73
2022/06/25 05:17:35;;;;;;;4.88;2.70;;;;;;;17.65;99.67;100867.00;4973799;28;20045;-73
2022/06/25 05:20:01;;;;;;;4.50;2.47;;;;;;;17.61;100.00;100863.16;4973180;28;20118;-73
2022/06/25 05:22:26;;;;;;;4.68;2.58;;;;;;;17.62;100.00;100862.03;4973397;28;20059;-73
2022/06/25 05:24:51;;;;;;;3.53;2.42;;;;;;;17.67;100.00;100862.06;4973116;28;20027;-73
2022/06/25 05:27:17;;;;;;;4.07;2.42;;;;;;;17.69;100.00;100863.44;4973595;28;20026;-73
2022/06/25 05:29:42;;;;;;;4.25;2.45;;;;;;;17.69;100.00;100866.16;5004797;28;20438;-73
2022/06/25 05:32:08;;;;;;;5.68;2.90;;;;;;;17.75;100.00;100861.50;4984012;28;20034;-73
2022/06/25 05:34:33;;;;;;;7.85;2.92;;;;;;;17.81;100.00;100862.34;4992867;28;20062;-73
2022/06/25 05:36:58;;;;;;;6.13;2.80;;;;;;;17.88;100.00;100869.19;4992432;28;20047;-73
2022/06/25 05:39:25;;;;;;;4.88;2.60;;;;;;;17.89;97.67;100870.03;4992886;28;20125;-73
2022/06/25 05:41:50;;;;;;;5.22;2.67;;;;;;;17.89;97.09;100870.84;4992537;28;20066;-73
2022/06/25 05:44:15;;;;;;;8.05;2.83;;;;;;;17.88;97.55;100874.66;4992866;28;20034;-73
2022/06/25 05:46:40;;;;;;;7.15;2.60;;;;;;;17.85;95.17;100875.19;4992841;28;20065;-74
2022/06/25 05:49:06;;;;;;;7.40;2.83;;;;;;;17.83;97.51;100877.41;4984925;28;20041;-73
2022/06/25 05:51:31;;;;;;;9.35;2.83;;;;;;;17.86;97.82;100885.06;4973340;28;20101;-73
2022/06/25 05:53:56;;;;;;;6.30;3.00;;;;;;;17.83;96.62;100882.88;4973110;28;20039;-73
2022/06/25 05:56:21;;;;;;;5.05;2.60;;;;;;;17.81;99.37;100878.75;4973315;28;20109;-73
2022/06/25 05:58:47;;;;;;;6.05;2.72;;;;;;;17.84;99.10;100892.72;4973635;28;20084;-73
2022/06/25 06:01:12;;;;;;;5.82;3.00;;;;;;;17.94;100.00;100904.81;5001796;28;20459;-73
2022/06/25 06:03:37;;;;;;;5.95;3.17;;;;;;;17.95;98.22;100890.00;5004582;28;20067;-76
2022/06/25 06:06:03;;;;;;;7.20;2.65;;;;;;;17.98;98.53;100898.50;4973197;28;20061;-75
2022/06/25 06:08:28;;;;;;;7.18;3.17;;;;;;;18.03;95.69;100900.44;4976632;28;20042;-74
2022/06/25 06:10:54;;;;;;;5.95;2.63;;;;;;;18.05;96.07;100900.97;4976507;28;20509;-75
2022/06/25 06:13:19;;;;;;;5.95;2.85;;;;;;;18.11;97.97;100908.09;4976614;28;20562;-75
2022/06/25 06:15:44;;;;;;;4.97;2.92;;;;;;;18.13;96.90;100910.53;5007975;28;20022;-74
2022/06/25 06:18:10;;;;;;;11.48;3.40;;;;;;;18.16;95.56;100905.38;4976535;28;20031;-75
2022/06/25 06:20:35;;;;;;;7.40;3.10;;;;;;;18.17;93.76;100906.97;4976538;28;20389;-74
2022/06/25 06:23:01;;;;;;;10.65;3.10;;;;;;;18.18;96.28;100916.03;4976250;28;20109;-74
2022/06/25 06:25:27;;;;;;;5.88;3.00;;;;;;;18.20;94.23;100924.78;4976170;28;20039;-73
2022/06/25 06:27:53;;;;;;;8.05;2.97;;;;;;;18.19;94.65;100915.75;4975789;28;20082;-75
2022/06/25 06:30:18;;;;;;;6.10;2.78;;;;;;;18.23;96.71;100918.75;4976386;28;20378;-75
2022/06/25 06:32:43;;;;;;;7.82;3.40;;;;;;;18.30;98.08;100918.47;5006194;28;20034;-76
2022/06/25 06:35:08;;;;;;;6.32;3.10;;;;;;;18.28;93.75;100924.22;4975869;28;20534;-73
2022/06/25 06:37:34;;;;;;;5.72;3.05;;;;;;;18.30;94.03;100932.16;4975765;28;20051;-75
2022/06/25 06:40:00;;;;;;;10.27;3.20;;;;;;;18.32;94.47;100936.28;4975908;28;20037;-76
2022/06/25 06:42:25;;;;;;;6.22;2.90;;;;;;;18.33;94.93;100934.38;4975870;28;20050;-75
2022/06/25 06:44:50;;;;;;;8.02;2.90;;;;;;;18.35;95.32;100929.44;4976101;28;20081;-74
2022/06/25 06:47:16;;;;;;;7.47;2.83;;;;;;;18.39;95.31;100923.13;4975492;28;20486;-75
2022/06/25 06:49:41;;;;;;;7.03;2.85;;;;;;;18.46;94.42;100927.50;4975877;28;20122;-76
2022/06/25 06:52:06;;;;;;;14.55;2.95;;;;;;;18.50;93.97;100928.59;4974514;28;20418;-76
2022/06/25 06:54:32;;;;;;;8.77;2.90;;;;;;;18.58;93.80;100930.78;5007122;28;20030;-76
2022/06/25 06:56:57;;;;;;;9.77;2.85;;;;;;;18.68;93.94;100935.44;4975736;28;20105;-74
2022/06/25 06:59:22;;;;;;;9.57;2.67;;;;;;;18.74;90.98;100931.56;4976027;28;20125;-75
2022/06/25 07:01:48;;;;;;;6.38;2.55;;;;;;;18.74;89.14;100929.66;5005004;28;20446;-73
2022/06/25 07:04:13;;;;;;;5.65;2.72;;;;;;;18.76;86.87;100930.19;4975651;28;20027;-75
2022/06/25 07:06:38;;;;;;;7.00;2.90;;;;;;;18.80;86.87;100927.72;4975545;28;20189;-76
2022/06/25 07:09:04;;;;;;;7.75;3.38;;;;;;;18.83;87.28;100929.91;4975329;28;20459;-74
2022/06/25 07:11:30;;;;;;;8.85;2.95;;;;;;;18.88;84.64;100935.38;4975822;28;20489;-79
2022/06/25 07:14:05;;;;;;;5.82;2.70;;;;;;;18.87;83.47;100932.94;4975369;28;20041;-77
2022/06/25 07:16:31;;;;;;;4.70;2.65;;;;;;;18.89;83.94;100937.03;4974460;28;20133;-75
2022/06/25 07:18:58;;;;;;;9.30;3.00;;;;;;;18.95;85.82;100940.59;4975300;28;20035;-74
2022/06/25 07:21:24;;;;;;;9.38;3.15;;;;;;;19.03;89.14;100936.44;4975676;28;20066;-74
2022/06/25 07:23:49;;;;;;;6.85;2.75;;;;;;;19.09;88.96;100936.13;4975396;28;20073;-73
2022/06/25 07:26:14;;;;;;;7.70;3.00;;;;;;;19.21;87.55;100940.50;4975148;28;20027;-74
2022/06/25 07:28:40;;;;;;;3.65;2.70;;;;;;;19.19;83.55;100948.16;4975084;28;20090;-73
2022/06/25 07:31:05;;;;;;;7.90;2.70;;;;;;;19.18;85.77;100943.81;4975349;28;20034;-74
2022/06/25 07:33:31;;;;;;;7.05;2.50;;;;;;;19.19;85.36;100942.69;4975023;28;20031;-75
2022/06/25 07:35:57;;;;;;;5.95;2.60;;;;;;;19.16;83.04;100940.50;4974943;28;20426;-74
2022/06/25 07:38:23;;;;;;;8.13;2.97;;;;;;;19.21;83.29;100944.06;4974600;28;20466;-75
2022/06/25 07:40:49;;;;;;;6.32;2.70;;;;;;;19.32;84.02;100938.53;4974950;28;20027;-75
2022/06/25 07:43:15;;;;;;;6.30;2.40;;;;;;;19.36;87.28;100940.41;4974697;28;20054;-75
2022/06/25 07:45:40;;;;;;;7.03;2.40;;;;;;;19.39;83.94;100942.59;4975031;28;20089;-74
2022/06/25 07:48:06;;;;;;;4.18;2.28;;;;;;;19.35;83.31;100937.97;4973366;28;20393;-74
2022/06/25 07:53:15;;;;;;;4.20;2.13;;;;;;;19.26;83.42;100941.31;4981354;28;20042;-74
2022/06/25 07:55:40;;;;;;;5.53;1.92;;;;;;;19.26;83.58;100965.16;5009174;28;20038;-75
2022/06/25 07:58:05;;;;;;;6.35;2.40;;;;;;;19.24;82.91;100951.72;4993971;28;20034;-79
2022/06/25 08:00:31;;;;;;;4.22;2.08;;;;;;;19.27;81.87;100948.41;4992195;28;20089;-75
2022/06/25 08:02:56;;;;;;;4.47;2.17;;;;;;;19.30;81.71;100947.84;4993794;28;20081;-76
2022/06/25 08:05:21;;;;;;;4.22;1.85;;;;;;;19.36;83.05;100950.59;4993717;28;20109;-77
2022/06/25 08:07:48;;;;;;;5.63;1.92;;;;;;;19.37;84.05;100952.22;4993911;28;20142;-74
2022/06/25 08:10:14;;;;;;;2.78;1.88;;;;;;;19.40;83.56;100951.66;5008770;28;20588;-75
2022/06/25 08:12:39;;;;;;;4.70;1.80;;;;;;;19.39;83.12;100944.53;4990097;28;20042;-76
2022/06/25 08:15:06;;;;;;;3.92;1.98;;;;;;;19.38;82.09;100949.19;4992201;28;20035;-76
2022/06/25 08:17:34;;;;;;;6.63;2.45;;;;;;;19.32;82.15;100949.50;4994059;28;20037;-81
2022/06/25 08:19:59;;;;;;;3.95;2.05;;;;;;;19.29;83.15;100956.34;4993610;28;20026;-77
2022/06/25 08:22:25;;;;;;;5.10;2.15;;;;;;;19.27;82.55;100959.38;4991580;28;20400;-77
2022/06/25 08:24:50;;;;;;;3.47;1.80;;;;;;;19.22;82.68;100962.16;4988838;28;20200;-78
2022/06/25 08:27:16;;;;;;;6.40;2.10;;;;;;;19.19;85.26;100962.72;4987223;28;20034;-75
2022/06/25 08:29:41;;;;;;;5.47;1.85;;;;;;;19.18;84.27;100966.56;4989238;28;20030;-74
2022/06/25 08:32:06;;;;;;;4.75;2.22;;;;;;;19.18;87.65;100960.25;4982966;28;20057;-75
2022/06/25 08:34:32;;;;;;;7.82;2.05;;;;;;;19.24;87.28;100959.94;4993417;28;20026;-74
2022/06/25 08:36:57;;;;;;;4.53;2.13;;;;;;;19.28;87.91;100952.00;4977671;28;20054;-75
2022/06/25 08:39:23;;;;;;;4.53;2.00;;;;;;;19.40;87.58;100957.13;4974165;28;20029;-75
2022/06/25 08:41:48;;;;;;;4.55;1.80;;;;;;;19.48;83.87;100956.56;4974019;28;20459;-74
2022/06/25 08:44:13;;;;;;;6.00;2.08;;;;;;;19.58;82.87;100961.16;4973688;28;20497;-73
2022/06/25 08:46:39;;;;;;;5.82;2.08;;;;;;;19.70;84.54;100958.91;4981631;28;20034;-74
2022/06/25 08:49:05;;;;;;;8.13;2.30;;;;;;;19.73;82.71;100961.09;4991842;28;20034;-75
2022/06/25 08:51:32;;;;;;;5.95;2.10;;;;;;;19.77;82.55;100961.34;4993362;28;20033;-74
2022/06/25 08:53:58;;;;;;;5.30;2.05;;;;;;;19.79;80.16;100959.16;4993354;28;20092;-74
2022/06/25 08:56:23;;;;;;;6.40;2.03;;;;;;;19.82;79.57;100959.41;4979281;28;20031;-74
2022/06/25 08:58:49;;;;;;;4.53;2.00;;;;;;;19.89;81.46;100961.00;4973897;28;20045;-74
2022/06/25 09:01:14;;;;;;;4.28;1.70;;;;;;;19.88;79.50;100960.19;4989749;28;20382;-74
2022/06/25 09:03:39;;;;;;;7.70;1.88;;;;;;;19.89;81.00;100961.00;4991734;28;20045;-75
2022/06/25 09:06:13;;;;;;;3.03;1.77;;;;;;;19.84;80.06;100961.88;4992987;28;20037;-75
2022/06/25 09:08:39;;;;;;;4.50;2.08;;;;;;;19.86;81.11;100965.16;4990383;28;20367;-72
2022/06/25 09:11:05;;;;;;;5.65;1.73;;;;;;;19.86;81.03;100967.88;4985975;28;20038;-79
2022/06/25 09:13:30;;;;;;;5.15;1.83;;;;;;;19.86;80.24;100967.88;4992463;28;20045;-75
2022/06/25 09:15:56;;;;;;;5.72;1.80;;;;;;;19.89;79.84;100969.25;4992333;28;20038;-73
2022/06/25 09:18:21;;;;;;;5.63;1.88;;;;;;;19.91;81.64;100970.59;4992685;28;20041;-74
2022/06/25 09:20:57;;;;;;;3.88;1.70;;;;;;;19.90;80.67;100976.38;5012412;28;20034;-74
2022/06/25 09:23:22;;;;;;;6.90;2.10;;;;;;;19.86;80.23;100969.81;4977835;28;20027;-74
2022/06/25 09:26:01;;;;;;;4.03;1.95;;;;;;;19.90;80.85;100971.72;4974559;28;20097;-75
2022/06/25 09:28:33;;;;;;;5.80;2.03;;;;;;;19.95;80.09;100977.16;4990252;28;20039;-76
2022/06/25 09:30:59;;;;;;;4.25;1.80;;;;;;;19.98;80.72;100965.59;4992985;28;20034;-75
2022/06/25 09:33:25;;;;;;;6.75;1.70;;;;;;;20.09;80.18;100962.78;4980467;28;20082;-76
2022/06/25 09:35:51;;;;;;;7.32;1.70;;;;;;;20.15;79.02;100967.13;4973669;28;20109;-75
2022/06/25 09:38:17;;;;;;;5.50;1.98;;;;;;;20.19;77.92;100970.97;4985294;28;20462;-76
2022/06/25 09:40:49;;;;;;;5.68;2.00;;;;;;;20.21;77.51;100965.97;4972914;28;20031;-75
2022/06/25 09:43:20;;;;;;;3.75;1.92;;;;;;;20.23;77.66;100963.78;4987913;28;20030;-76
2022/06/25 09:45:48;;;;;;;6.33;2.00;;;;;;;20.28;77.53;100962.94;4975836;28;20058;-76
2022/06/25 09:48:23;;;;;;;4.10;1.77;;;;;;;20.36;77.38;100965.84;4990690;28;20030;-76
2022/06/25 09:51:07;;;;;;;5.38;1.90;;;;;;;20.47;77.39;100974.00;4996471;28;20061;-78
2022/06/25 09:53:34;;;;;;;4.07;1.52;;;;;;;20.50;75.53;100976.19;4994322;28;20081;-78
2022/06/25 09:56:01;;;;;;;5.25;1.60;;;;;;;20.54;76.33;100971.75;4981719;28;20030;-76
2022/06/25 09:58:27;;;;;;;10.07;1.90;;;;;;;20.59;75.08;100979.13;4995175;28;20084;-78
2022/06/25 10:00:54;;;;;;;7.30;1.75;;;;;;;20.67;76.16;100976.59;4992153;28;20026;-76
2022/06/25 10:03:21;;;;;;;2.72;1.27;;;;;;;20.67;71.74;100978.56;4994992;28;20061;-78
2022/06/25 10:05:46;;;;;;;8.02;1.40;;;;;;;20.63;71.50;100982.94;4996471;28;20088;-76
2022/06/25 10:08:14;;;;;;;4.60;1.80;;;;;;;20.61;72.38;100980.50;4995056;28;20034;-76
2022/06/25 10:10:42;;;;;;;3.72;1.48;;;;;;;20.63;72.10;100978.25;4994856;28;20029;-77
2022/06/25 10:13:08;;;;;;;6.80;1.42;;;;;;;20.71;72.32;100976.84;4995367;28;20042;-76
2022/06/25 10:15:34;;;;;;;6.70;1.90;;;;;;;20.76;72.33;100974.06;4983764;28;20031;-78
2022/06/25 10:18:02;;;;;;;4.40;1.80;;;;;;;20.87;73.69;100972.00;5001212;28;20049;-77
2022/06/25 10:20:28;;;;;;;6.28;1.80;;;;;;;20.99;71.86;100972.41;4990459;28;20033;-76
2022/06/25 10:22:57;;;;;;;3.75;1.30;;;;;;;21.06;72.46;100969.31;4993389;28;20030;-77
2022/06/25 10:25:25;;;;;;;5.07;1.40;;;;;;;21.05;70.02;100960.25;5005657;28;20030;-79
2022/06/25 10:28:03;;;;;;;4.75;1.13;;;;;;;21.07;70.07;100959.94;5009586;28;20023;-79
2022/06/25 10:30:53;;;;;;;3.30;1.02;;;;;;;21.06;69.69;100964.63;4987717;28;20371;-79
2022/06/25 10:33:42;;;;;;;6.53;1.30;;;;;;;21.05;68.42;100967.69;4994397;28;20022;-77
2022/06/25 10:36:08;;;;;;;3.47;1.20;;;;;;;21.09;67.91;100954.16;4995575;28;20042;-82
2022/06/25 10:38:33;;;;;;;3.83;1.20;;;;;;;21.22;68.91;100959.75;4995276;28;20043;-79
2022/06/25 10:43:54;;;;;;;2.88;1.10;;;;;;;21.30;65.96;100958.28;4981139;28;20142;-79
2022/06/25 10:46:23;;;;;;;3.03;1.30;;;;;;;21.40;67.50;100966.41;4979965;28;20043;-79
2022/06/25 10:49:07;;;;;;;3.67;1.13;;;;;;;21.42;65.70;100966.13;5009008;28;20034;-79
2022/06/25 10:51:39;;;;;;;1.88;0.90;;;;;;;21.52;67.07;100970.72;4990773;28;20110;-79
2022/06/25 10:54:11;;;;;;;2.63;1.10;;;;;;;21.59;66.24;100960.16;4975380;28;20117;-79
2022/06/25 10:56:44;;;;;;;;;;;;;;;21.71;67.00;100971.53;4979620;28;20061;-79
2022/06/25 10:59:39;;;;;;;5.00;0.93;;;;;;;21.81;65.87;100962.31;4985675;28;20021;-79
2022/06/25 11:02:07;;;;;;;0.95;0.73;;;;;;;21.93;64.73;100959.09;4988659;28;20360;-81
2022/06/25 11:04:36;;;;;;;3.28;0.95;;;;;;;21.97;63.75;100954.63;4979374;28;20185;-79
2022/06/25 11:07:12;;;;;;;2.00;0.70;;;;;;;22.02;63.50;100951.78;4975493;28;20455;-79
2022/06/25 11:09:51;;;;;;;1.52;0.80;;;;;;;22.04;64.38;100954.25;4975584;28;20034;-79
2022/06/25 11:12:24;;;;;;;2.75;0.90;;;;;;;22.01;62.29;100952.09;4981091;28;20038;-79
2022/06/25 11:15:02;;;;;;;3.85;0.80;;;;;;;21.98;62.86;100950.75;4993222;28;20026;-79
2022/06/25 11:17:46;;;;;;;3.55;1.00;;;;;;;22.00;63.92;100944.97;4993368;28;20038;-79
2022/06/25 11:20:12;;;;;;;2.33;1.10;;;;;;;22.02;63.55;100949.03;4986638;28;20041;-79
2022/06/25 11:22:48;;;;;;;2.60;0.90;;;;;;;22.06;64.22;100952.84;4994612;28;20105;-79
2022/06/25 11:30:48;;;;;;;1.48;0.80;;;;;;;22.22;65.35;100960.84;4994689;28;20084;-78
2022/06/25 11:33:14;;;;;;;1.95;0.93;;;;;;;22.19;62.85;100961.44;4994534;28;20034;-78
2022/06/25 11:35:41;;;;;;;3.30;0.90;;;;;;;22.15;61.95;100961.25;4977134;28;20042;-78
2022/06/25 11:38:16;;;;;;;4.75;3.92;;;;;;;22.15;62.59;100960.41;4975008;28;20054;-78
2022/06/25 11:40:42;;;;;;;2.03;1.20;;;;;;;22.23;63.15;100968.00;4975354;28;20030;-79
2022/06/25 11:43:08;;;;;;;2.85;0.90;;;;;;;22.26;62.11;100972.91;4975395;28;20030;-79
2022/06/25 11:45:46;;;;;;;0.85;0.57;;;;;;;22.27;62.59;100969.03;4974826;28;20493;-77
2022/06/25 11:48:12;;;;;;;3.05;1.00;;;;;;;22.19;62.91;100966.97;4990074;28;20041;-78
2022/06/25 11:50:37;;;;;;;2.53;0.90;;;;;;;22.10;61.15;100964.06;4992950;28;20027;-77
2022/06/25 11:53:04;;;;;;;4.65;1.02;;;;;;;22.04;63.21;100966.09;5009308;28;20673;-77
2022/06/25 11:55:29;;;;;;;2.75;1.08;;;;;;;22.02;62.04;100959.25;5009164;28;20037;-77